Time;durP1;ratioP1;P1;durP2;ratioP2;P2;SDS_P1;SDS_P2;PMS_P1;PMS_P2;Temp;Humidity;BMP_temperature;BMP_pressure;BME280_temperature;BME280_humidity;BME280_pressure;Samples;Min_cycle;Max_cycle;Signal;HPM_P1;HPM_P2
2022/02/01 00:00:07;;;;;;;20.42;4.68;;;;;;;8.56;85.54;101794.25;6121078;23;20029;-83
2022/02/01 00:01:57;;;;;;;16.50;3.47;;;;;;;8.56;85.41;101795.06;6091836;23;20022;-82
2022/02/01 00:04:37;;;;;;;19.67;4.20;;;;;;;8.58;85.68;101805.78;6097673;23;20017;-80
2022/02/01 00:07:17;;;;;;;21.25;4.93;;;;;;;8.57;85.33;101799.47;6121811;23;20049;-82
2022/02/01 00:20:39;;;;;;;22.83;5.70;;;;;;;8.62;85.72;101837.19;6184178;23;20048;-82
2022/02/01 00:33:17;;;;;;;10.10;2.88;;;;;;;8.62;86.10;101820.63;6184040;23;20021;-82
2022/02/01 00:34:23;;;;;;;14.95;3.00;;;;;;;8.65;86.33;101820.03;6182325;23;20032;-81
2022/02/01 00:36:54;;;;;;;13.77;3.38;;;;;;;8.66;86.13;101821.63;6207479;23;20025;-82
2022/02/01 00:39:29;;;;;;;14.13;3.07;;;;;;;8.69;85.93;101821.03;6183917;23;20017;-82
2022/02/01 00:41:56;;;;;;;21.30;3.63;;;;;;;8.71;86.19;101816.00;6184012;23;20288;-82
2022/02/01 00:44:25;;;;;;;21.88;3.00;;;;;;;8.69;86.28;101829.31;6183904;23;20021;-82
2022/02/01 00:46:52;;;;;;;20.00;3.63;;;;;;;8.69;86.34;101807.22;6181817;23;20044;-82
2022/02/01 00:49:19;;;;;;;13.68;3.55;;;;;;;8.70;86.42;101817.16;6182267;23;20455;-81
2022/02/01 00:51:46;;;;;;;12.38;3.65;;;;;;;8.71;86.61;101821.53;6183879;23;20044;-81
2022/02/01 00:54:12;;;;;;;15.13;3.40;;;;;;;8.72;86.65;101819.59;6182107;23;20031;-82
2022/02/01 00:56:39;;;;;;;17.88;3.22;;;;;;;8.72;86.55;101812.13;6207022;23;20025;-82
2022/02/01 00:59:07;;;;;;;19.08;3.10;;;;;;;8.73;86.60;101799.97;6182075;23;20028;-82
2022/02/01 01:01:34;;;;;;;18.52;3.92;;;;;;;8.70;87.17;101806.13;6183440;23;20371;-82
2022/02/01 01:04:02;;;;;;;15.02;5.50;;;;;;;8.74;86.99;101811.81;6183759;23;20028;-81
2022/02/01 01:06:29;;;;;;;17.13;4.13;;;;;;;8.75;86.59;101833.63;6181942;23;20028;-81
2022/02/01 01:08:56;;;;;;;19.15;3.63;;;;;;;8.75;86.72;101833.63;6183667;23;20013;-82
2022/02/01 01:11:23;;;;;;;18.40;3.70;;;;;;;8.76;86.71;101826.16;6181918;23;20025;-81
2022/02/01 01:43:55;;;;;;;27.27;3.75;;;;;;;8.78;89.03;101846.81;6183034;23;20028;-82
2022/02/01 01:54:24;;;;;;;22.98;3.58;;;;;;;8.77;89.45;101856.22;6181637;23;20506;-81
2022/02/01 01:56:55;;;;;;;16.55;4.15;;;;;;;8.77;89.91;101850.69;6181476;23;20041;-82
2022/02/01 01:59:25;;;;;;;25.63;4.20;;;;;;;8.75;89.95;101849.34;6183091;23;20063;-81
2022/02/01 02:01:53;;;;;;;20.90;4.07;;;;;;;8.72;90.64;101856.31;6181336;23;20017;-82
2022/02/01 02:04:20;;;;;;;16.13;3.65;;;;;;;8.70;91.04;101855.81;6156684;23;20079;-82
2022/02/01 02:06:47;;;;;;;18.75;3.88;;;;;;;8.72;91.14;101874.81;6181292;23;20530;-80
2022/02/01 02:09:14;;;;;;;13.10;3.78;;;;;;;8.68;92.17;101863.59;6183357;23;20017;-81
2022/02/01 02:14:21;;;;;;;32.33;4.75;;;;;;;8.61;93.13;101871.44;6183051;23;20443;-81
2022/02/01 02:16:57;;;;;;;16.25;3.60;;;;;;;8.60;93.81;101858.75;6182621;23;20049;-81
2022/02/01 02:19:26;;;;;;;25.35;3.97;;;;;;;8.61;93.40;101857.63;6181032;23;20068;-81
2022/02/01 02:21:56;;;;;;;18.23;3.72;;;;;;;8.62;92.82;101852.94;6182698;23;20032;-80
2022/02/01 02:24:28;;;;;;;14.20;4.10;;;;;;;8.61;93.15;101860.38;6156711;23;20017;-81
2022/02/01 02:26:56;;;;;;;21.70;3.40;;;;;;;8.62;93.14;101867.56;6182833;23;20419;-81
2022/02/01 02:29:23;;;;;;;19.25;3.33;;;;;;;8.61;93.43;101843.00;6206502;23;20024;-81
2022/02/01 02:31:51;;;;;;;16.85;4.35;;;;;;;8.60;93.72;101850.47;6181491;23;20063;-81
2022/02/01 02:34:19;;;;;;;10.05;1.83;;;;;;;8.58;94.28;101836.97;6183164;23;20024;-81
2022/02/01 02:36:54;;;;;;;14.18;4.10;;;;;;;8.58;93.48;101841.66;6206396;23;20020;-81
2022/02/01 02:39:26;;;;;;;12.60;3.95;;;;;;;8.58;94.19;101844.44;6181034;23;20517;-82
2022/02/01 02:47:08;;;;;;;21.65;4.97;;;;;;;8.53;95.12;101841.75;6182712;23;20067;-81
2022/02/01 02:49:36;;;;;;;12.93;2.75;;;;;;;8.53;95.40;101827.97;6182976;23;20021;-79
2022/02/01 02:52:03;;;;;;;20.33;3.63;;;;;;;8.53;95.45;101822.44;6156690;23;20079;-80
2022/02/01 02:54:30;;;;;;;9.50;4.00;;;;;;;8.54;95.42;101829.63;6206310;23;20025;-81
2022/02/01 02:57:00;;;;;;;18.38;2.40;;;;;;;8.56;95.07;101832.88;6182764;23;20021;-81
2022/02/01 02:59:28;;;;;;;20.92;3.03;;;;;;;8.56;95.54;101830.13;6182941;23;20075;-80
2022/02/01 03:01:56;;;;;;;14.52;2.40;;;;;;;8.54;95.94;101854.47;6181211;23;20020;-80
2022/02/01 03:04:28;;;;;;;15.63;2.45;;;;;;;8.53;96.12;101836.25;6182931;23;20111;-81
2022/02/01 03:06:55;;;;;;;10.38;2.17;;;;;;;8.53;96.37;101833.50;6181262;23;20021;-80
2022/02/01 03:09:23;;;;;;;13.50;2.50;;;;;;;8.54;95.97;101843.41;6181049;23;20029;-82
2022/02/01 03:11:57;;;;;;;19.00;3.22;;;;;;;8.52;96.59;101837.38;6181097;23;20020;-81
2022/02/01 03:14:50;;;;;;;9.25;2.88;;;;;;;8.53;96.86;101841.75;6182857;23;20176;-83
2022/02/01 03:19:50;;;;;;;8.10;1.63;;;;;;;8.51;97.64;101813.66;6182590;23;20045;-82
2022/02/01 03:22:19;;;;;;;6.32;1.77;;;;;;;8.51;97.36;101814.47;6182822;23;20017;-83
2022/02/01 03:24:52;;;;;;;16.73;2.25;;;;;;;8.53;96.96;101803.94;6182878;23;20017;-82
2022/02/01 03:27:24;;;;;;;13.45;2.40;;;;;;;8.53;97.31;101801.19;6181279;23;20020;-82
2022/02/01 03:29:52;;;;;;;9.43;1.80;;;;;;;8.53;97.19;101808.66;6181018;23;20025;-82
2022/02/01 03:32:20;;;;;;;9.30;3.72;;;;;;;8.52;97.78;101773.91;6156026;23;20071;-81
2022/02/01 03:34:49;;;;;;;10.35;2.38;;;;;;;8.52;97.97;101782.19;6184176;23;20024;-81
2022/02/01 03:37:16;;;;;;;10.57;2.08;;;;;;;8.52;97.83;101782.19;6182935;23;20025;-81
2022/02/01 03:39:44;;;;;;;11.27;2.70;;;;;;;8.52;98.34;101776.66;6184480;23;20096;-81
2022/02/01 03:42:11;;;;;;;12.05;2.00;;;;;;;8.51;98.11;101769.50;6184438;23;20014;-81
2022/02/01 03:44:39;;;;;;;10.90;3.97;;;;;;;8.52;98.53;101779.44;6184746;23;20100;-81
2022/02/01 03:47:06;;;;;;;11.50;1.70;;;;;;;8.52;98.26;101769.19;6184447;23;20383;-81
2022/02/01 03:49:36;;;;;;;8.30;1.70;;;;;;;8.52;98.75;101749.06;6184057;23;20013;-81
2022/02/01 03:52:04;;;;;;;11.85;2.03;;;;;;;8.53;98.29;101736.88;6182338;23;20013;-81
2022/02/01 03:54:33;;;;;;;9.38;3.42;;;;;;;8.53;98.90;101747.94;6158256;23;20027;-81
2022/02/01 03:57:03;;;;;;;7.28;1.92;;;;;;;8.53;98.72;101737.72;6184547;23;20020;-81
2022/02/01 03:59:30;;;;;;;8.95;1.70;;;;;;;8.51;99.22;101737.22;6184077;23;20016;-81
2022/02/01 04:01:59;;;;;;;5.45;2.05;;;;;;;8.54;99.11;101724.72;6183916;23;20072;-81
2022/02/01 04:04:29;;;;;;;8.65;1.35;;;;;;;8.54;99.10;101725.56;6157998;23;20020;-81
2022/02/01 04:06:57;;;;;;;11.07;1.80;;;;;;;8.55;99.09;101709.81;6207543;23;20017;-81
2022/02/01 04:09:26;;;;;;;6.63;1.17;;;;;;;8.57;99.03;101724.13;6183860;23;20039;-81
2022/02/01 04:11:54;;;;;;;5.80;1.42;;;;;;;8.55;99.55;101723.63;6184309;23;20045;-80
2022/02/01 04:14:25;;;;;;;9.40;1.30;;;;;;;8.56;99.66;101728.00;6182671;23;20024;-81
2022/02/01 04:16:53;;;;;;;8.63;1.83;;;;;;;8.57;99.75;101718.59;6157678;23;20021;-81
2022/02/01 04:19:20;;;;;;;6.72;1.33;;;;;;;8.57;99.86;101710.31;6184326;23;20060;-81
2022/02/01 04:22:03;;;;;;;5.20;1.25;;;;;;;8.56;100.00;101728.81;6183867;23;20021;-80
2022/02/01 04:24:42;;;;;;;6.28;1.58;;;;;;;8.54;100.00;101722.81;6182482;23;20017;-81
2022/02/01 04:27:30;;;;;;;12.27;1.75;;;;;;;8.54;100.00;101711.75;6157928;23;20716;-80
2022/02/01 04:30:08;;;;;;;8.65;2.17;;;;;;;8.55;100.00;101716.13;6207632;23;20032;-81
2022/02/01 04:32:39;;;;;;;6.65;1.55;;;;;;;8.58;100.00;101726.56;6183731;23;20017;-81
2022/02/01 04:35:09;;;;;;;6.10;1.50;;;;;;;8.59;100.00;101721.88;6184041;23;20017;-81
2022/02/01 04:37:37;;;;;;;7.93;1.50;;;;;;;8.60;100.00;101720.75;6184070;23;20024;-81
2022/02/01 04:40:07;;;;;;;5.22;1.83;;;;;;;8.62;100.00;101726.78;6183944;23;20015;-80
2022/02/01 04:42:36;;;;;;;10.82;3.58;;;;;;;8.63;100.00;101722.88;6182400;23;20013;-80
2022/02/01 04:45:07;;;;;;;8.45;1.33;;;;;;;8.66;100.00;101725.00;6182124;23;20021;-80
2022/02/01 04:47:35;;;;;;;7.55;1.40;;;;;;;8.68;100.00;101733.84;6183969;23;20104;-81
2022/02/01 04:50:12;;;;;;;3.72;0.85;;;;;;;8.68;100.00;101733.84;6157540;23;20103;-80
2022/02/01 04:52:41;;;;;;;7.80;1.50;;;;;;;8.70;100.00;101730.75;6184008;23;20092;-80
2022/02/01 04:55:09;;;;;;;7.32;2.10;;;;;;;8.72;100.00;101745.88;6183911;23;20040;-80
2022/02/01 04:57:47;;;;;;;8.30;1.70;;;;;;;8.73;100.00;101744.75;6182372;23;20692;-80
2022/02/01 05:00:15;;;;;;;13.45;2.60;;;;;;;8.75;100.00;101736.97;6206576;23;20009;-80
2022/02/01 05:02:42;;;;;;;8.95;2.10;;;;;;;8.78;100.00;101741.88;6157580;23;20104;-80
2022/02/01 05:05:09;;;;;;;9.10;2.58;;;;;;;8.81;100.00;101749.56;6206622;23;20032;-80
2022/02/01 05:07:36;;;;;;;7.57;2.00;;;;;;;8.81;100.00;101743.22;6206929;23;20542;-81
2022/02/01 05:10:08;;;;;;;9.10;1.50;;;;;;;8.83;100.00;101747.31;6181788;23;20017;-80
2022/02/01 05:12:36;;;;;;;7.40;2.20;;;;;;;8.86;100.00;101743.94;6183728;23;20017;-81
2022/02/01 05:15:07;;;;;;;8.73;1.75;;;;;;;8.88;100.00;101741.66;6183384;23;20009;-80
2022/02/01 05:17:41;;;;;;;5.00;1.98;;;;;;;8.88;100.00;101752.72;6181296;23;20459;-80
2022/02/01 05:20:24;;;;;;;8.10;2.10;;;;;;;8.89;100.00;101739.72;6182007;23;20010;-80
2022/02/01 05:22:53;;;;;;;7.63;1.70;;;;;;;8.91;100.00;101738.28;6183412;23;20084;-80
2022/02/01 05:25:28;;;;;;;4.93;1.17;;;;;;;8.90;100.00;101733.88;6183179;23;20017;-81
2022/02/01 05:27:58;;;;;;;4.40;1.52;;;;;;;8.90;100.00;101725.59;6183473;23;20021;-80
2022/02/01 05:30:26;;;;;;;8.68;1.10;;;;;;;8.90;100.00;101739.41;6183095;23;20020;-80
2022/02/01 05:32:54;;;;;;;9.38;1.40;;;;;;;8.94;100.00;101751.47;6183292;23;20028;-80
2022/02/01 05:35:21;;;;;;;4.25;1.23;;;;;;;8.96;100.00;101746.47;6183381;23;20021;-80
2022/02/01 05:37:48;;;;;;;5.32;1.67;;;;;;;8.96;100.00;101746.47;6183532;23;20037;-81
2022/02/01 05:40:15;;;;;;;4.55;1.27;;;;;;;8.96;100.00;101743.69;6181603;23;20017;-80
2022/02/01 05:43:27;;;;;;;8.95;1.67;;;;;;;8.97;100.00;101739.00;6181828;23;20009;-80
2022/02/01 05:45:34;;;;;;;8.60;1.80;;;;;;;8.98;100.00;101744.19;6181014;23;20013;-80
2022/02/01 05:48:04;;;;;;;4.82;0.82;;;;;;;8.97;100.00;101748.09;6181711;23;20124;-80
2022/02/01 05:50:31;;;;;;;9.35;1.65;;;;;;;8.99;100.00;101734.78;6156870;23;20017;-80
2022/02/01 05:53:01;;;;;;;5.85;1.50;;;;;;;8.99;100.00;101743.09;6183537;23;20470;-80
2022/02/01 05:55:32;;;;;;;10.18;1.90;;;;;;;8.96;100.00;101735.41;6181673;23;20220;-80
2022/02/01 05:57:59;;;;;;;7.43;1.60;;;;;;;8.97;100.00;101734.28;6156218;23;20013;-80
2022/02/01 06:00:27;;;;;;;4.15;1.10;;;;;;;8.97;100.00;101750.88;6183157;23;20317;-80
2022/02/01 06:02:54;;;;;;;7.43;2.10;;;;;;;8.96;100.00;101751.97;6181788;23;20017;-80
2022/02/01 06:05:23;;;;;;;5.95;1.30;;;;;;;8.97;100.00;101753.63;6182966;23;20107;-80
2022/02/01 06:07:52;;;;;;;2.88;0.65;;;;;;;8.97;100.00;101745.34;6181573;23;20392;-80
2022/02/01 06:10:19;;;;;;;6.13;1.13;;;;;;;8.99;100.00;101751.38;6181753;23;20017;-80
2022/02/01 06:12:48;;;;;;;3.40;0.73;;;;;;;8.97;100.00;101753.63;6206736;23;20025;-80
2022/02/01 06:15:18;;;;;;;2.80;1.08;;;;;;;8.98;100.00;101762.72;6181094;23;20017;-80
2022/02/01 06:17:45;;;;;;;5.25;1.30;;;;;;;8.98;100.00;101769.06;6182597;23;20020;-80
2022/02/01 06:20:13;;;;;;;4.10;1.02;;;;;;;9.00;100.00;101761.28;6182775;23;20017;-80
2022/02/01 06:22:40;;;;;;;3.75;1.23;;;;;;;9.01;100.00;101767.63;6183008;23;20017;-80
2022/02/01 06:25:08;;;;;;;4.38;1.17;;;;;;;8.99;100.00;101770.69;6183106;23;20068;-80
2022/02/01 06:27:36;;;;;;;3.00;1.08;;;;;;;9.01;100.00;101768.44;6181587;23;20021;-80
2022/02/01 06:30:08;;;;;;;6.13;1.15;;;;;;;9.01;100.00;101773.97;6181513;23;20021;-80
2022/02/01 06:32:38;;;;;;;5.43;1.35;;;;;;;9.03;100.00;101771.69;6206502;23;20021;-80
2022/02/01 06:35:07;;;;;;;4.32;1.30;;;;;;;9.04;100.00;101773.34;6181275;23;20076;-80
2022/02/01 06:37:35;;;;;;;4.78;1.33;;;;;;;9.03;100.00;101779.16;6205949;23;20075;-80
2022/02/01 06:40:03;;;;;;;3.88;0.82;;;;;;;9.04;100.00;101778.88;6182645;23;20013;-80
2022/02/01 06:42:31;;;;;;;2.88;1.10;;;;;;;9.05;100.00;101779.69;6182981;23;20013;-81
2022/02/01 06:44:58;;;;;;;2.85;1.10;;;;;;;9.06;100.00;101778.56;6181320;23;20032;-81
2022/02/01 06:47:25;;;;;;;3.22;0.80;;;;;;;9.06;100.00;101776.63;6183059;23;20040;-81
2022/02/01 06:49:53;;;;;;;4.15;0.88;;;;;;;9.07;100.00;101783.78;6182832;23;20017;-80
2022/02/01 06:52:20;;;;;;;4.38;1.20;;;;;;;9.07;100.00;101778.25;6205954;23;20067;-81
2022/02/01 06:54:47;;;;;;;2.22;0.68;;;;;;;9.09;100.00;101783.47;6182607;23;20017;-81
2022/02/01 06:57:17;;;;;;;1.48;0.98;;;;;;;9.09;100.00;101776.00;6181339;23;20020;-81
2022/02/01 06:59:46;;;;;;;2.70;1.58;;;;;;;9.10;100.00;101777.66;6206444;23;20013;-81
2022/02/01 07:02:13;;;;;;;2.10;0.93;;;;;;;9.11;100.00;101778.44;6156912;23;20728;-82
2022/02/01 07:04:43;;;;;;;2.95;1.10;;;;;;;9.10;100.00;101777.66;6180953;23;20049;-81
2022/02/01 07:07:10;;;;;;;3.67;1.20;;;;;;;9.11;100.00;101793.06;6183068;23;20040;-81
2022/02/01 07:09:37;;;;;;;4.47;0.95;;;;;;;9.11;100.00;101779.25;6182240;23;20024;-81
2022/02/01 07:12:05;;;;;;;2.90;1.63;;;;;;;9.12;100.00;101791.97;6184466;23;20031;-80
2022/02/01 07:14:32;;;;;;;4.25;1.30;;;;;;;9.12;100.00;101789.19;6184854;23;20025;-81
2022/02/01 07:16:59;;;;;;;1.85;1.27;;;;;;;9.13;100.00;101799.09;6207049;23;20017;-80
2022/02/01 07:19:26;;;;;;;4.68;1.10;;;;;;;9.15;100.00;101791.34;6183307;23;20024;-81
2022/02/01 07:21:53;;;;;;;3.42;1.63;;;;;;;9.15;100.00;101798.81;6184359;23;20020;-80
2022/02/01 07:24:28;;;;;;;2.55;1.27;;;;;;;9.14;100.00;101797.97;6158030;23;20032;-80
2022/02/01 07:26:58;;;;;;;4.38;1.23;;;;;;;9.15;100.00;101798.81;6184410;23;20044;-81
2022/02/01 07:29:25;;;;;;;3.45;1.10;;;;;;;9.14;100.00;101800.75;6183008;23;20363;-81
2022/02/01 07:31:54;;;;;;;6.38;1.42;;;;;;;9.15;100.00;101779.47;6184718;23;20017;-81
2022/02/01 07:34:21;;;;;;;3.13;1.40;;;;;;;9.17;100.00;101780.78;6158395;23;20212;-80
2022/02/01 07:36:48;;;;;;;3.15;1.10;;;;;;;9.18;100.00;101784.38;6182765;23;20013;-81
2022/02/01 07:39:15;;;;;;;2.67;1.10;;;;;;;9.19;100.00;101792.34;6208042;23;20044;-80
2022/02/01 07:41:42;;;;;;;2.30;0.85;;;;;;;9.20;100.00;101798.69;6184502;23;20016;-80
2022/02/01 07:44:09;;;;;;;2.70;0.85;;;;;;;9.23;100.00;101797.25;6184164;23;20427;-81
2022/02/01 07:46:37;;;;;;;5.15;1.67;;;;;;;9.25;100.00;101801.34;6207423;23;20012;-81
2022/02/01 07:49:04;;;;;;;3.58;2.47;;;;;;;9.25;100.00;101793.03;6182776;23;20028;-80
2022/02/01 07:51:31;;;;;;;3.53;1.42;;;;;;;9.26;100.00;101788.34;6207574;23;20424;-81
2022/02/01 07:53:58;;;;;;;3.33;1.10;;;;;;;9.26;100.00;101785.56;6184056;23;20727;-78
2022/02/01 07:56:25;;;;;;;8.65;1.58;;;;;;;9.26;100.00;101771.75;6184133;23;20033;-78
2022/02/01 07:58:51;;;;;;;4.50;2.58;;;;;;;9.27;100.00;101771.44;6184171;23;20024;-78
2022/02/01 08:01:18;;;;;;;2.30;1.27;;;;;;;9.29;100.00;101773.91;6207637;23;20017;-78
2022/02/01 08:03:45;;;;;;;4.15;1.40;;;;;;;9.29;100.00;101769.22;6184444;23;20017;-78
2022/02/01 08:06:12;;;;;;;4.00;1.48;;;;;;;9.31;100.00;101766.13;6182365;23;20017;-78
2022/02/01 08:08:39;;;;;;;3.17;1.70;;;;;;;9.32;100.00;101767.75;6184011;23;20548;-78
2022/02/01 08:11:11;;;;;;;1.83;1.15;;;;;;;9.32;100.00;101778.81;6184292;23;20052;-78
2022/02/01 08:19:09;;;;;;;1.38;1.17;;;;;;;9.37;100.00;101779.47;6183666;23;20013;-78
2022/02/01 08:21:53;;;;;;;3.03;1.60;;;;;;;9.38;100.00;101766.50;6183790;23;20021;-78
2022/02/01 08:24:20;;;;;;;2.92;1.27;;;;;;;9.39;100.00;101770.91;6184012;23;20044;-78
2022/02/01 08:26:48;;;;;;;3.42;1.17;;;;;;;9.39;100.00;101768.13;6206994;23;20451;-78
2022/02/01 08:29:16;;;;;;;2.10;1.08;;;;;;;9.41;100.00;101777.75;6207500;23;20017;-78
2022/02/01 08:31:47;;;;;;;2.70;1.27;;;;;;;9.44;100.00;101781.84;6184103;23;20017;-78
2022/02/01 08:34:16;;;;;;;3.35;1.45;;;;;;;9.44;100.00;101776.31;6184057;23;20096;-78
2022/02/01 08:36:43;;;;;;;2.70;1.20;;;;;;;9.44;100.00;101765.25;6207120;23;20447;-79
2022/02/01 08:39:11;;;;;;;4.15;1.08;;;;;;;9.45;100.00;101766.91;6181367;23;20060;-78
2022/02/01 08:41:38;;;;;;;1.92;1.10;;;;;;;9.47;100.00;101781.22;6180929;23;20379;-78
2022/02/01 08:44:07;;;;;;;1.77;1.13;;;;;;;9.50;100.00;101781.41;6182876;23;20040;-79
2022/02/01 08:46:34;;;;;;;2.97;1.25;;;;;;;9.51;100.00;101783.03;6184001;23;20040;-77
2022/02/01 08:49:02;;;;;;;1.95;1.23;;;;;;;9.51;100.00;101794.09;6182446;23;20021;-83
2022/02/01 08:51:38;;;;;;;2.00;1.30;;;;;;;9.54;100.00;101778.81;6183787;23;20025;-78
2022/02/01 08:54:14;;;;;;;1.67;1.10;;;;;;;9.56;100.00;101796.72;6182396;23;20021;-81
2022/02/01 09:00:13;;;;;;;4.55;1.55;;;;;;;9.65;100.00;101802.34;6179966;23;20123;-82
2022/02/01 09:02:45;;;;;;;3.30;2.00;;;;;;;9.68;100.00;101801.72;6184761;23;20009;-83
2022/02/01 09:05:12;;;;;;;3.35;1.98;;;;;;;9.69;100.00;101806.09;6181938;23;20020;-85
2022/02/01 09:07:39;;;;;;;3.13;1.20;;;;;;;9.72;100.00;101802.72;6182136;23;20017;-80
2022/02/01 09:10:09;;;;;;;2.33;1.50;;;;;;;9.75;100.00;101804.84;6181351;23;20475;-82
2022/02/01 09:12:36;;;;;;;2.17;0.98;;;;;;;9.75;100.00;101804.84;6182287;23;20077;-83
2022/02/01 09:15:03;;;;;;;2.55;1.20;;;;;;;9.78;100.00;101816.13;6183622;23;20037;-84
2022/02/01 09:17:51;;;;;;;1.55;0.98;;;;;;;9.81;100.00;101825.72;6181560;23;20020;-83
2022/02/01 09:20:19;;;;;;;2.95;1.17;;;;;;;9.81;100.00;101820.19;6206415;23;20051;-79
2022/02/01 09:22:47;;;;;;;2.25;1.50;;;;;;;9.80;100.00;101829.63;6181990;23;20052;-80
2022/02/01 09:25:17;;;;;;;4.18;1.65;;;;;;;9.78;100.00;101824.41;6183584;23;20021;-80
2022/02/01 09:27:46;;;;;;;3.53;2.35;;;;;;;9.79;100.00;101833.53;6206689;23;20017;-79
2022/02/01 09:30:14;;;;;;;3.50;1.58;;;;;;;9.82;100.00;101837.63;6157055;23;20447;-80
2022/02/01 09:32:42;;;;;;;4.13;1.25;;;;;;;9.80;100.00;101826.84;6181498;23;20478;-79
2022/02/01 09:35:09;;;;;;;2.38;1.10;;;;;;;9.81;100.00;101828.50;6181273;23;20100;-80
2022/02/01 09:37:36;;;;;;;2.05;1.17;;;;;;;9.85;100.00;101837.78;6181974;23;20033;-80
2022/02/01 09:40:03;;;;;;;5.10;2.15;;;;;;;9.89;100.00;101840.75;6181941;23;20020;-79
2022/02/01 09:42:31;;;;;;;3.92;1.40;;;;;;;9.92;100.00;101843.72;6182370;23;20032;-80
2022/02/01 09:45:01;;;;;;;3.42;1.50;;;;;;;9.93;100.00;101836.25;6184062;23;20021;-79
2022/02/01 09:47:33;;;;;;;3.65;1.35;;;;;;;9.94;100.00;101846.16;6207894;23;20023;-80
2022/02/01 09:50:01;;;;;;;3.45;1.50;;;;;;;9.93;100.00;101831.50;6182115;23;20447;-79
2022/02/01 09:52:30;;;;;;;4.70;1.38;;;;;;;9.94;100.00;101829.56;6156142;23;20029;-80
2022/02/01 09:55:02;;;;;;;3.47;1.80;;;;;;;9.92;100.00;101826.28;6182924;23;20021;-80
2022/02/01 09:57:29;;;;;;;;;;;;;;;9.89;100.00;101827.75;6157488;23;20021;-81
2022/02/01 10:00:00;;;;;;;2.10;0.85;;;;;;;9.91;100.00;101830.19;6206541;23;19920;-84
2022/02/01 10:02:57;;;;;;;1.58;0.85;;;;;;;9.91;100.00;101839.31;6181684;23;20021;-83
2022/02/01 10:05:24;;;;;;;2.17;1.08;;;;;;;9.91;100.00;101831.00;6156987;23;20020;-84
2022/02/01 10:07:55;;;;;;;2.40;1.05;;;;;;;9.96;100.00;101833.63;6181606;23;20027;-83
2022/02/01 10:10:25;;;;;;;2.28;1.23;;;;;;;9.96;100.00;101828.09;6181561;23;20325;-83
2022/02/01 10:13:00;;;;;;;1.92;1.20;;;;;;;10.00;100.00;101823.59;6181462;23;20029;-84
2022/02/01 10:15:28;;;;;;;1.90;1.20;;;;;;;10.02;100.00;101828.81;6206367;23;20020;-84
2022/02/01 10:18:01;;;;;;;1.67;0.90;;;;;;;10.03;100.00;101834.03;6180468;23;20017;-83
2022/02/01 10:20:35;;;;;;;2.80;0.98;;;;;;;10.01;100.00;101827.97;6181625;23;20115;-84
2022/02/01 10:23:21;;;;;;;2.55;0.90;;;;;;;10.03;100.00;101819.38;6181661;23;20787;-83
2022/02/01 10:26:17;;;;;;;3.25;1.20;;;;;;;10.01;100.00;101816.91;6181005;23;20025;-82
2022/02/01 10:31:26;;;;;;;3.58;1.00;;;;;;;10.05;100.00;101815.16;6182607;23;20020;-83
2022/02/01 10:34:03;;;;;;;0.98;0.73;;;;;;;10.08;100.00;101814.53;6182431;23;20028;-83
2022/02/01 10:36:39;;;;;;;2.08;0.60;;;;;;;10.07;100.00;101814.84;6181679;23;20023;-83
2022/02/01 10:39:24;;;;;;;1.45;0.77;;;;;;;10.11;100.00;101813.88;6156381;23;20017;-83
2022/02/01 10:41:56;;;;;;;5.03;1.38;;;;;;;10.15;100.00;101817.69;6206291;23;20017;-83
2022/02/01 10:44:36;;;;;;;2.10;0.80;;;;;;;10.20;100.00;101813.97;6182695;23;20119;-83
2022/02/01 10:47:06;;;;;;;1.25;0.65;;;;;;;10.23;100.00;101816.09;6185115;23;20075;-83
2022/02/01 10:49:53;;;;;;;1.88;1.48;;;;;;;10.25;100.00;101811.88;6183602;23;20033;-83
2022/02/01 10:52:20;;;;;;;2.80;0.82;;;;;;;10.26;100.00;101816.31;6208240;23;20013;-81
2022/02/01 10:54:47;;;;;;;0.77;0.73;;;;;;;10.28;100.00;101799.38;6185015;23;20017;-83
2022/02/01 10:57:15;;;;;;;0.80;0.70;;;;;;;10.27;100.00;101801.31;6184629;23;20394;-84
2022/02/01 10:59:42;;;;;;;5.88;1.30;;;;;;;10.27;100.00;101801.31;6208099;23;20048;-82
2022/02/01 11:02:11;;;;;;;1.80;0.93;;;;;;;10.28;100.00;101793.84;6184400;23;20320;-83
2022/02/01 11:04:38;;;;;;;3.58;1.70;;;;;;;10.30;100.00;101803.44;6185084;23;20020;-84
2022/02/01 11:07:07;;;;;;;2.47;1.50;;;;;;;10.37;100.00;101800.25;6184813;23;20024;-83
2022/02/01 11:09:35;;;;;;;1.63;1.13;;;;;;;10.39;100.00;101797.97;6183240;23;20017;-81
2022/02/01 11:12:11;;;;;;;2.80;1.23;;;;;;;10.47;100.00;101802.72;6182422;23;20017;-83
2022/02/01 11:14:47;;;;;;;1.33;0.70;;;;;;;10.46;100.00;101798.31;6207967;23;20465;-84
2022/02/01 11:17:19;;;;;;;1.23;0.77;;;;;;;10.48;100.00;101814.63;6182866;23;20021;-83
2022/02/01 11:19:58;;;;;;;2.35;1.08;;;;;;;10.50;100.00;101815.94;6182910;23;20041;-83
2022/02/01 11:23:22;;;;;;;2.65;0.75;;;;;;;10.50;100.00;101812.34;6184568;23;20017;-84
2022/02/01 11:25:56;;;;;;;1.02;0.70;;;;;;;10.47;99.97;101810.22;6158575;23;20025;-80
2022/02/01 11:28:36;;;;;;;6.25;0.95;;;;;;;10.49;99.78;101807.94;6183369;23;20386;-80
2022/02/01 11:31:04;;;;;;;2.30;1.13;;;;;;;10.54;99.65;101810.59;6182748;23;20017;-81
2022/02/01 11:33:43;;;;;;;2.45;1.30;;;;;;;10.52;99.87;101818.38;6184325;23;20764;-79
2022/02/01 11:36:12;;;;;;;2.03;1.30;;;;;;;10.57;99.84;101810.75;6183036;23;20091;-80
2022/02/01 11:38:50;;;;;;;2.40;1.55;;;;;;;10.58;99.63;101806.03;6184323;23;20017;-80
2022/02/01 11:41:19;;;;;;;3.60;2.53;;;;;;;10.57;99.16;101818.22;6184476;23;20068;-81
2022/02/01 11:43:46;;;;;;;2.83;1.88;;;;;;;10.58;99.46;101822.66;6184666;23;20059;-80
2022/02/01 11:46:18;;;;;;;2.90;2.10;;;;;;;10.58;99.45;101815.16;6184015;23;20027;-81
2022/02/01 11:48:51;;;;;;;1.65;1.40;;;;;;;10.58;99.51;101829.00;6183047;23;20099;-81
2022/02/01 11:51:24;;;;;;;3.35;2.17;;;;;;;10.62;98.86;101824.44;6183966;23;20009;-81
2022/02/01 11:53:59;;;;;;;2.75;1.23;;;;;;;10.65;98.85;101828.53;6182453;23;20051;-81
2022/02/01 11:56:37;;;;;;;1.70;1.38;;;;;;;10.67;98.70;101812.44;6182535;23;20099;-81
2022/02/01 11:59:07;;;;;;;1.92;1.38;;;;;;;10.73;98.84;101809.19;6184532;23;20145;-80
2022/02/01 12:01:36;;;;;;;2.95;0.93;;;;;;;10.74;98.31;101805.28;6183940;23;20044;-81
2022/02/01 12:04:04;;;;;;;1.02;0.82;;;;;;;10.74;98.15;101802.53;6158081;23;20474;-81
2022/02/01 12:06:39;;;;;;;0.75;0.73;;;;;;;10.74;98.20;101805.28;6207925;23;20024;-81
2022/02/01 12:09:10;;;;;;;1.63;0.80;;;;;;;10.77;98.15;101792.75;6182648;23;20013;-82
2022/02/01 12:11:40;;;;;;;0.82;0.70;;;;;;;10.75;97.83;101783.94;6184466;23;20025;-81
2022/02/01 12:14:08;;;;;;;1.13;0.93;;;;;;;10.68;98.01;101789.94;6182872;23;20021;-80
2022/02/01 12:16:35;;;;;;;1.52;1.20;;;;;;;10.70;97.61;101789.59;6206809;23;20036;-81
2022/02/01 12:19:06;;;;;;;2.42;0.80;;;;;;;10.71;97.81;101777.41;6206925;23;20072;-79
2022/02/01 12:21:57;;;;;;;1.38;0.63;;;;;;;10.74;97.58;101768.47;6183960;23;20017;-81
2022/02/01 12:24:26;;;;;;;1.95;0.73;;;;;;;10.79;97.18;101769.13;6207411;23;20391;-81
2022/02/01 12:26:53;;;;;;;1.33;0.55;;;;;;;10.82;97.50;101764.91;6184196;23;20031;-82
2022/02/01 12:29:20;;;;;;;1.88;0.90;;;;;;;10.80;97.41;101758.88;6207324;23;20017;-81
2022/02/01 12:31:48;;;;;;;2.38;0.70;;;;;;;10.75;98.00;101761.78;6157274;23;20040;-81
2022/02/01 12:34:17;;;;;;;1.38;0.50;;;;;;;10.73;98.09;101758.50;6184186;23;20021;-81
2022/02/01 12:36:50;;;;;;;0.90;0.47;;;;;;;10.68;98.21;101753.13;6182350;23;20036;-81
2022/02/01 12:39:23;;;;;;;0.30;0.30;;;;;;;10.70;98.09;101753.59;6183868;23;20387;-81
2022/02/01 12:42:05;;;;;;;1.05;0.40;;;;;;;10.78;97.89;101755.59;6183615;23;20514;-81
2022/02/01 12:47:07;;;;;;;0.90;0.60;;;;;;;10.81;97.68;101754.94;6184082;23;20017;-81
2022/02/01 12:49:49;;;;;;;1.65;0.50;;;;;;;10.75;97.54;101748.75;6182561;23;20102;-80
2022/02/01 12:52:18;;;;;;;1.50;0.32;;;;;;;10.76;97.44;101738.47;6183828;23;20027;-81
2022/02/01 12:54:57;;;;;;;;;;;;;;;10.74;97.29;101738.81;6206214;23;20348;-80
2022/02/01 12:57:24;;;;;;;0.55;0.50;;;;;;;10.75;97.47;101734.88;6181956;23;19916;-81
2022/02/01 12:59:53;;;;;;;3.95;0.65;;;;;;;10.77;97.04;101745.66;6183904;23;20017;-80